createdAt,value
2023-04-26T00:02:28.604Z,27.49
2023-04-26T00:07:33.586Z,28.33
2023-04-26T00:12:40.528Z,27.73
2023-04-26T00:17:45.405Z,27.45
2023-04-26T00:22:51.254Z,27.24
2023-04-26T00:27:56.012Z,27.75
2023-04-26T00:33:00.864Z,27.54
2023-04-26T00:38:06.562Z,27.91
2023-04-26T00:43:12.613Z,27.86
2023-04-26T00:48:18.275Z,27.70
2023-04-26T00:53:23.796Z,27.14
2023-04-26T00:58:29.110Z,27.78
2023-04-26T01:03:36.004Z,27.04
2023-04-26T01:08:41.300Z,27.48
2023-04-26T01:13:46.914Z,27.35
2023-04-26T01:18:57.342Z,26.66
2023-04-26T01:24:02.829Z,26.69
2023-04-26T01:29:17.068Z,26.44
2023-04-26T01:34:22.123Z,26.28
2023-04-26T01:39:27.294Z,25.92
2023-04-26T01:44:32.080Z,23.75
2023-04-26T01:49:39.310Z,26.28
2023-04-26T01:54:44.194Z,25.97
2023-04-26T01:59:49.001Z,25.70
2023-04-26T02:04:54.019Z,26.16
2023-04-26T02:10:01.050Z,25.51
2023-04-26T02:15:08.169Z,23.08
2023-04-26T02:20:15.194Z,22.54
2023-04-26T02:25:21.249Z,25.39
2023-04-26T02:30:26.299Z,21.54
2023-04-26T02:35:31.519Z,24.95
2023-04-26T02:40:35.981Z,23.02
2023-04-26T02:45:46.209Z,23.65
2023-04-26T02:50:51.636Z,23.54
2023-04-26T02:55:57.870Z,24.42
2023-04-26T03:01:02.958Z,21.09
2023-04-26T03:06:08.905Z,20.82
2023-04-26T03:11:14.056Z,24.33
2023-04-26T03:16:23.428Z,23.51
2023-04-26T03:21:29.387Z,23.67
2023-04-26T03:26:36.272Z,25.31
2023-04-26T03:31:41.410Z,24.55
2023-04-26T03:36:46.514Z,21.60
2023-04-26T03:41:52.564Z,25.53
2023-04-26T03:46:57.760Z,24.08
2023-04-26T03:52:04.144Z,23.86
2023-04-26T03:57:09.188Z,22.34
2023-04-26T04:02:16.147Z,24.77
2023-04-26T04:07:21.158Z,24.73
2023-04-26T04:12:27.467Z,23.09
2023-04-26T04:17:32.577Z,23.99
2023-04-26T04:22:37.358Z,23.07
2023-04-26T04:27:44.808Z,23.92
2023-04-26T04:32:49.616Z,22.17
2023-04-26T04:37:55.764Z,21.93
2023-04-26T04:43:03.644Z,22.80
2023-04-26T04:48:10.304Z,22.32
2023-04-26T04:53:17.640Z,22.17
2023-04-26T04:58:23.822Z,22.96
2023-04-26T05:03:29.204Z,19.90
2023-04-26T05:08:34.673Z,21.28
2023-04-26T05:13:42.403Z,21.17
2023-04-26T05:18:50.442Z,22.43
2023-04-26T05:23:55.671Z,21.78
2023-04-26T05:29:01.410Z,19.03
2023-04-26T05:34:39.823Z,21.40
2023-04-26T05:39:47.806Z,20.42
2023-04-26T05:44:52.966Z,22.26
2023-04-26T05:49:58.040Z,21.20
2023-04-26T05:55:07.233Z,22.39
2023-04-26T06:00:14.302Z,20.48
2023-04-26T06:05:20.938Z,19.61
2023-04-26T06:10:26.116Z,21.50
2023-04-26T06:15:34.839Z,20.57
2023-04-26T06:20:39.617Z,20.70
2023-04-26T06:25:46.853Z,21.58
2023-04-26T06:30:51.839Z,21.16
2023-04-26T06:35:57.006Z,20.82
2023-04-26T06:41:02.233Z,20.01
2023-04-26T06:46:07.778Z,19.21
2023-04-26T06:51:13.958Z,21.94
2023-04-26T06:56:20.182Z,20.58
2023-04-26T07:01:24.489Z,21.36
2023-04-26T07:06:29.886Z,21.05
2023-04-26T07:11:34.722Z,21.29
2023-04-26T07:16:39.770Z,21.70
2023-04-26T07:21:45.891Z,21.08
2023-04-26T07:26:51.495Z,20.22
2023-04-26T07:31:56.384Z,20.73
2023-04-26T07:37:01.795Z,21.05
2023-04-26T07:42:07.103Z,20.49
2023-04-26T07:47:15.802Z,19.96
2023-04-26T07:52:20.884Z,19.98
2023-04-26T07:57:26.877Z,19.88
2023-04-26T08:02:43.458Z,21.41
2023-04-26T08:07:49.182Z,21.48
2023-04-26T08:12:54.563Z,21.17
2023-04-26T08:17:59.697Z,19.74
2023-04-26T08:23:04.789Z,21.63
2023-04-26T08:28:09.954Z,21.48
2023-04-26T08:33:15.090Z,21.24
2023-04-26T08:38:21.871Z,20.93
2023-04-26T08:43:28.729Z,21.99
2023-04-26T08:48:38.565Z,22.44
2023-04-26T08:53:44.657Z,22.72
2023-04-26T08:58:49.717Z,22.37
2023-04-26T09:03:56.713Z,21.31
2023-04-26T09:09:09.366Z,22.24
2023-04-26T09:14:15.115Z,21.69
2023-04-26T09:19:32.567Z,21.83
2023-04-26T09:24:56.308Z,23.29
2023-04-26T09:30:13.964Z,22.22
2023-04-26T09:35:29.890Z,23.00
2023-04-26T09:40:41.995Z,22.88
2023-04-26T09:45:52.030Z,22.90
2023-04-26T09:51:00.058Z,23.38
2023-04-26T09:56:11.222Z,22.57
2023-04-26T10:01:21.401Z,23.52
2023-04-26T10:06:28.686Z,22.73
2023-04-26T10:11:36.265Z,23.59
2023-04-26T10:16:43.941Z,23.68
2023-04-26T10:21:52.929Z,23.74
2023-04-26T10:26:59.908Z,23.89
2023-04-26T10:32:08.581Z,23.75
2023-04-26T10:37:19.430Z,23.95
2023-04-26T10:42:33.564Z,24.59
2023-04-26T10:47:39.631Z,24.23
2023-04-26T10:53:04.683Z,24.70
2023-04-26T10:58:31.712Z,24.57
2023-04-26T11:03:38.316Z,25.06
2023-04-26T11:08:45.394Z,25.40
2023-04-26T11:13:50.928Z,24.99
2023-04-26T11:18:58.346Z,25.49
2023-04-26T11:24:03.661Z,25.58
2023-04-26T11:29:12.561Z,25.75
2023-04-26T11:34:18.113Z,25.93
2023-04-26T11:39:23.918Z,26.44
2023-04-26T11:44:29.129Z,26.10
2023-04-26T11:49:36.022Z,26.14
2023-04-26T11:54:42.093Z,26.13
2023-04-26T11:59:48.243Z,26.50
2023-04-26T12:05:02.056Z,26.36
2023-04-26T12:10:35.999Z,26.23
2023-04-26T12:15:41.695Z,26.69
2023-04-26T12:20:50.355Z,27.30
2023-04-26T12:25:58.155Z,26.79
2023-04-26T12:31:05.529Z,26.86
2023-04-26T12:36:15.146Z,27.40
2023-04-26T12:41:20.763Z,27.69
2023-04-26T12:46:27.473Z,27.66
2023-04-26T12:51:33.394Z,27.81
2023-04-26T12:56:44.784Z,27.75
2023-04-26T13:01:50.257Z,28.31
2023-04-26T13:06:56.203Z,28.42
2023-04-26T13:12:02.685Z,27.97
2023-04-26T13:17:12.350Z,27.52
2023-04-26T13:22:18.643Z,27.94
2023-04-26T13:27:24.238Z,27.64
2023-04-26T13:32:31.828Z,27.82
2023-04-26T13:37:38.570Z,27.92
2023-04-26T13:42:44.603Z,28.13
2023-04-26T13:47:50.269Z,27.53
2023-04-26T13:52:56.349Z,28.10
2023-04-26T13:58:02.117Z,27.90
2023-04-26T14:03:07.897Z,28.34
2023-04-26T14:08:14.019Z,29.14
2023-04-26T14:13:19.910Z,28.85
2023-04-26T14:18:24.690Z,30.13
2023-04-26T14:23:30.142Z,29.97
2023-04-26T14:28:37.830Z,30.22
2023-04-26T14:33:43.688Z,30.06
2023-04-26T14:38:49.484Z,31.56
2023-04-26T14:43:55.696Z,31.10
2023-04-26T14:49:02.624Z,31.85
2023-04-26T14:54:08.247Z,31.89
2023-04-26T14:59:13.989Z,31.59
2023-04-26T15:04:19.692Z,32.92
2023-04-26T15:09:25.657Z,32.63
2023-04-26T15:14:31.178Z,32.53
2023-04-26T15:19:38.433Z,32.01
2023-04-26T15:24:43.812Z,33.13
2023-04-26T15:29:49.145Z,32.48
2023-04-26T15:34:56.763Z,32.71
2023-04-26T15:40:02.473Z,32.78
2023-04-26T15:45:08.270Z,32.81
2023-04-26T15:50:14.257Z,32.74
2023-04-26T15:55:22.372Z,32.77
2023-04-26T16:00:29.713Z,32.61
2023-04-26T16:05:35.528Z,34.04
2023-04-26T16:10:41.018Z,34.31
2023-04-26T16:15:47.562Z,34.01
2023-04-26T16:20:53.344Z,33.72
2023-04-26T16:25:59.915Z,33.90
2023-04-26T16:31:06.696Z,34.19
2023-04-26T16:36:12.340Z,34.19
2023-04-26T16:41:19.564Z,34.17
2023-04-26T16:46:24.787Z,33.82
2023-04-26T16:51:30.335Z,33.87
2023-04-26T16:56:35.683Z,34.62
2023-04-26T17:01:41.976Z,34.73
2023-04-26T17:06:47.483Z,34.24
2023-04-26T17:11:53.738Z,34.61
2023-04-26T17:16:59.122Z,34.86
2023-04-26T17:22:04.505Z,35.28
2023-04-26T17:27:09.900Z,34.47
2023-04-26T17:32:15.687Z,34.17
2023-04-26T17:37:21.514Z,34.89
2023-04-26T17:42:26.424Z,34.46
2023-04-26T17:47:32.279Z,35.29
2023-04-26T17:52:38.556Z,34.32
2023-04-26T17:57:44.311Z,34.17
2023-04-26T18:02:49.954Z,34.83
2023-04-26T18:07:55.746Z,34.41
2023-04-26T18:13:01.597Z,34.68
2023-04-26T18:18:09.180Z,34.30
2023-04-26T18:23:14.527Z,35.33
2023-04-26T18:28:19.761Z,34.62
2023-04-26T18:33:25.732Z,35.07
2023-04-26T18:38:31.174Z,34.61
2023-04-26T18:43:36.817Z,35.18
2023-04-26T18:48:42.214Z,35.12
2023-04-26T18:53:47.773Z,34.99
2023-04-26T18:58:53.326Z,34.93
2023-04-26T19:03:58.666Z,35.32
2023-04-26T19:09:05.814Z,36.33
2023-04-26T19:14:11.309Z,35.60
2023-04-26T19:19:16.382Z,35.84
2023-04-26T19:24:22.892Z,36.28
2023-04-26T19:29:27.309Z,35.06
2023-04-26T19:34:34.136Z,36.55
2023-04-26T19:39:39.193Z,36.64
2023-04-26T19:44:44.341Z,37.23
2023-04-26T19:49:50.696Z,37.91
2023-04-26T19:54:58.297Z,36.44
2023-04-26T20:00:03.259Z,37.04
2023-04-26T20:05:11.770Z,36.73
2023-04-26T20:10:17.294Z,37.02
2023-04-26T20:15:22.502Z,36.86
2023-04-26T20:20:27.172Z,37.60
2023-04-26T20:25:33.310Z,40.01
2023-04-26T20:30:39.518Z,38.45
2023-04-26T20:35:44.774Z,38.79
2023-04-26T20:40:50.199Z,37.63
2023-04-26T20:45:56.048Z,38.04
2023-04-26T20:51:02.253Z,39.85
2023-04-26T20:56:07.676Z,38.63
2023-04-26T21:01:13.699Z,38.72
2023-04-26T21:06:18.674Z,38.56
2023-04-26T21:11:23.429Z,38.51
2023-04-26T21:16:28.890Z,38.85
2023-04-26T21:21:34.094Z,38.38
2023-04-26T21:26:39.103Z,39.40
2023-04-26T21:31:43.901Z,36.67
2023-04-26T21:36:49.251Z,38.40
2023-04-26T21:41:54.374Z,40.00
2023-04-26T21:46:59.146Z,40.12
2023-04-26T21:52:04.304Z,38.31
2023-04-26T21:57:11.574Z,40.98
2023-04-26T22:02:16.800Z,38.78
2023-04-26T22:07:22.264Z,38.57
2023-04-26T22:12:29.683Z,39.80
2023-04-26T22:17:34.101Z,38.70
2023-04-26T22:22:40.382Z,38.34
2023-04-26T22:27:45.610Z,38.85
2023-04-26T22:32:55.108Z,39.13
2023-04-26T22:38:00.190Z,38.51
2023-04-26T22:43:05.428Z,37.98
2023-04-26T22:48:10.743Z,38.14
2023-04-26T22:53:15.649Z,37.87
2023-04-26T22:58:20.688Z,38.92
2023-04-26T23:03:26.544Z,38.08
2023-04-26T23:08:31.441Z,38.23
2023-04-26T23:13:37.635Z,38.79
2023-04-26T23:18:45.463Z,38.19
2023-04-26T23:23:51.684Z,37.51
2023-04-26T23:28:56.682Z,38.72
2023-04-26T23:34:01.754Z,37.83
2023-04-26T23:39:08.079Z,37.58
2023-04-26T23:44:13.262Z,37.51
2023-04-26T23:49:19.010Z,37.50
2023-04-26T23:54:24.084Z,36.97
2023-04-26T23:59:28.975Z,37.14
